Time;durP1;ratioP1;P1;durP2;ratioP2;P2;SDS_P1;SDS_P2;PMS_P1;PMS_P2;Temp;Humidity;BMP_temperature;BMP_pressure;BME280_temperature;BME280_humidity;BME280_pressure;Samples;Min_cycle;Max_cycle;Signal;HPM_P1;HPM_P2
2023/11/17 00:00:53;;;;;;;3.00;2.10;;;;;;;8.69;100.00;97484.53;4171677;28;20230;-82
2023/11/17 00:02:57;;;;;;;4.93;1.55;;;;;;;8.71;100.00;97489.63;4176351;28;20226;-83
2023/11/17 00:05:00;;;;;;;2.33;1.50;;;;;;;8.72;100.00;97493.88;4174001;28;20205;-83
2023/11/17 00:07:04;;;;;;;1.90;1.20;;;;;;;8.75;100.00;97502.31;4156731;28;20234;-83
2023/11/17 00:09:10;;;;;;;2.30;1.42;;;;;;;8.76;100.00;97508.31;4167496;28;20301;-82
2023/11/17 00:11:13;;;;;;;2.15;1.52;;;;;;;8.76;100.00;97521.31;4171600;28;20199;-82
2023/11/17 00:13:18;;;;;;;2.22;1.60;;;;;;;8.77;100.00;97525.59;4167983;28;20210;-83
2023/11/17 00:15:23;;;;;;;2.00;1.40;;;;;;;8.78;100.00;97533.28;4169020;28;20703;-82
2023/11/17 00:17:27;;;;;;;1.95;1.35;;;;;;;8.79;100.00;97549.69;4166285;28;20214;-83
2023/11/17 00:19:31;;;;;;;3.10;1.30;;;;;;;8.78;100.00;97555.81;4167182;28;20210;-82
2023/11/17 00:21:36;;;;;;;2.72;1.38;;;;;;;8.75;100.00;97556.03;4173659;28;20222;-81
2023/11/17 00:23:40;;;;;;;2.45;1.30;;;;;;;8.77;100.00;97570.59;4172058;28;20300;-82
2023/11/17 00:25:43;;;;;;;2.20;1.40;;;;;;;8.77;100.00;97572.38;4151751;28;20197;-83
2023/11/17 00:27:46;;;;;;;1.90;1.33;;;;;;;8.77;100.00;97583.59;4157260;28;20695;-83
2023/11/17 00:29:50;;;;;;;1.80;1.10;;;;;;;8.72;100.00;97585.69;4183973;28;21124;-82
2023/11/17 00:31:55;;;;;;;1.80;1.10;;;;;;;8.74;100.00;97593.38;4158280;28;20766;-83
2023/11/17 00:33:58;;;;;;;3.00;1.33;;;;;;;8.76;100.00;97601.91;4183522;28;20206;-82
2023/11/17 00:36:02;;;;;;;1.63;0.80;;;;;;;8.79;100.00;97617.28;4169394;28;20198;-82
2023/11/17 00:38:07;;;;;;;1.55;0.80;;;;;;;8.80;100.00;97618.97;4165231;28;20195;-83
2023/11/17 00:40:11;;;;;;;1.85;1.17;;;;;;;8.81;100.00;97620.59;4173330;28;20221;-82
2023/11/17 00:42:13;;;;;;;2.30;1.30;;;;;;;8.80;100.00;97624.97;4155072;28;20276;-83
2023/11/17 00:44:17;;;;;;;1.98;1.05;;;;;;;8.80;100.00;97644.97;4155091;28;20251;-82
2023/11/17 00:46:20;;;;;;;1.35;0.80;;;;;;;8.79;100.00;97648.47;4154787;28;20214;-82
2023/11/17 00:48:25;;;;;;;2.03;1.13;;;;;;;8.77;100.00;97655.56;4169738;28;20242;-83
2023/11/17 00:50:29;;;;;;;2.35;1.20;;;;;;;8.75;100.00;97662.63;4180580;28;20608;-82
2023/11/17 00:52:32;;;;;;;1.63;0.90;;;;;;;8.73;100.00;97672.31;4183028;28;20270;-83
2023/11/17 00:54:42;;;;;;;1.50;1.02;;;;;;;8.70;100.00;97675.09;4158080;28;20206;-82
2023/11/17 00:56:47;;;;;;;1.77;0.90;;;;;;;8.73;100.00;97685.28;4187544;28;20200;-82
2023/11/17 00:58:50;;;;;;;2.20;0.82;;;;;;;8.69;100.00;97692.47;4157156;28;20658;-82
2023/11/17 01:00:53;;;;;;;1.52;0.82;;;;;;;8.71;100.00;97697.56;4159110;28;20226;-84
2023/11/17 01:02:58;;;;;;;1.40;0.88;;;;;;;8.67;100.00;97715.13;4168673;28;20272;-84
2023/11/17 01:05:01;;;;;;;1.40;0.90;;;;;;;8.67;100.00;97719.50;4159852;28;20202;-83
2023/11/17 01:07:05;;;;;;;1.30;0.90;;;;;;;8.62;100.00;97731.97;4160857;28;20214;-83
2023/11/17 01:09:09;;;;;;;1.77;1.05;;;;;;;8.62;100.00;97745.78;4173309;28;20210;-82
2023/11/17 01:11:13;;;;;;;1.77;1.00;;;;;;;8.61;100.00;97748.50;4179930;28;20584;-82
2023/11/17 01:13:17;;;;;;;1.40;0.77;;;;;;;8.57;100.00;97753.06;4152460;28;20206;-82
2023/11/17 01:15:21;;;;;;;1.30;0.80;;;;;;;8.55;98.62;97765.34;4157002;28;20219;-83
2023/11/17 01:17:24;;;;;;;2.00;0.77;;;;;;;8.43;99.60;97764.47;4155075;28;20279;-83
2023/11/17 01:19:29;;;;;;;1.73;0.80;;;;;;;8.44;98.64;97785.16;4155877;28;20305;-83
2023/11/17 01:21:32;;;;;;;1.73;1.00;;;;;;;8.46;100.00;97788.47;4175871;28;20222;-82
2023/11/17 01:23:35;;;;;;;2.00;0.73;;;;;;;8.46;99.23;97797.13;4171357;28;20243;-82
2023/11/17 01:25:39;;;;;;;1.63;0.70;;;;;;;8.45;99.37;97805.84;4159365;28;20304;-83
2023/11/17 01:27:42;;;;;;;1.55;0.90;;;;;;;8.45;100.00;97815.41;4185659;28;20201;-82
2023/11/17 01:29:45;;;;;;;1.60;0.90;;;;;;;8.45;100.00;97811.03;4176158;28;20476;-82
2023/11/17 01:31:49;;;;;;;1.70;0.95;;;;;;;8.44;99.78;97824.94;4157368;28;20798;-82
2023/11/17 01:33:52;;;;;;;1.60;1.10;;;;;;;8.41;99.55;97824.31;4157138;28;20242;-82
2023/11/17 01:35:58;;;;;;;1.75;0.95;;;;;;;8.43;99.26;97830.25;4166246;28;20203;-84
2023/11/17 01:38:02;;;;;;;1.40;0.70;;;;;;;8.47;100.00;97844.72;4173328;28;20202;-83
2023/11/17 01:40:05;;;;;;;1.90;1.00;;;;;;;8.46;99.81;97849.09;4169261;28;20236;-82
2023/11/17 01:42:08;;;;;;;1.70;1.02;;;;;;;8.45;99.61;97854.38;4186398;28;20256;-83
2023/11/17 01:44:11;;;;;;;1.42;0.80;;;;;;;8.46;100.00;97858.63;4155958;28;20212;-83
2023/11/17 01:46:15;;;;;;;1.63;0.90;;;;;;;8.47;100.00;97871.53;4172900;28;20301;-82
2023/11/17 01:48:19;;;;;;;1.60;1.00;;;;;;;8.45;99.67;97859.59;4187759;28;20572;-82
2023/11/17 01:50:22;;;;;;;2.22;0.85;;;;;;;8.46;99.56;97863.81;4171668;28;20240;-83
2023/11/17 01:52:27;;;;;;;1.70;0.90;;;;;;;8.47;99.93;97874.13;4170935;28;20202;-82
2023/11/17 01:54:32;;;;;;;1.58;1.10;;;;;;;8.48;99.88;97886.19;4154381;28;20914;-82
2023/11/17 01:56:36;;;;;;;1.52;0.80;;;;;;;8.46;100.00;97890.66;4178210;28;20206;-82
2023/11/17 01:58:39;;;;;;;1.60;1.00;;;;;;;8.45;99.54;97894.19;4167522;28;20295;-83
2023/11/17 02:00:42;;;;;;;2.50;0.90;;;;;;;8.45;100.00;97894.19;4158892;28;20293;-83
2023/11/17 02:02:49;;;;;;;2.03;0.95;;;;;;;8.45;99.40;97907.19;4170460;28;20233;-82
2023/11/17 02:04:52;;;;;;;1.70;1.00;;;;;;;8.47;99.06;97907.09;4164642;28;20213;-83
2023/11/17 02:07:05;;;;;;;1.65;0.93;;;;;;;8.44;99.66;97910.69;4185979;28;20244;-83
2023/11/17 02:09:17;;;;;;;1.55;0.98;;;;;;;8.47;100.00;97918.31;4173839;28;20253;-83
2023/11/17 02:11:24;;;;;;;1.80;1.10;;;;;;;8.48;99.37;97919.97;4174223;28;20206;-83
2023/11/17 02:13:32;;;;;;;1.75;1.08;;;;;;;8.46;99.86;97932.25;4158084;28;20232;-83
2023/11/17 02:15:35;;;;;;;1.52;0.80;;;;;;;8.46;100.00;97933.97;4170819;28;20202;-82
2023/11/17 02:17:42;;;;;;;1.40;0.90;;;;;;;8.47;100.00;97940.88;4170946;28;20255;-84
2023/11/17 02:19:46;;;;;;;2.00;1.30;;;;;;;8.45;99.28;97940.13;4173678;28;20210;-82
2023/11/17 02:21:49;;;;;;;2.95;1.13;;;;;;;8.46;99.60;97953.03;4157478;28;20215;-83
2023/11/17 02:23:53;;;;;;;1.98;1.00;;;;;;;8.45;100.00;97940.97;4156433;28;20226;-82
2023/11/17 02:26:17;;;;;;;1.70;1.20;;;;;;;8.48;99.31;97955.53;4170639;28;20197;-84
2023/11/17 02:28:30;;;;;;;1.80;0.90;;;;;;;8.49;100.00;97954.59;4154671;28;20210;-83
2023/11/17 02:30:34;;;;;;;1.58;1.00;;;;;;;8.50;99.84;97953.66;4181811;28;20296;-83
2023/11/17 02:32:38;;;;;;;2.67;1.23;;;;;;;8.52;100.00;97963.06;4156821;28;20214;-83
2023/11/17 02:34:42;;;;;;;2.05;1.10;;;;;;;8.53;99.95;97964.69;4166638;28;20207;-82
2023/11/17 02:36:47;;;;;;;2.10;1.30;;;;;;;8.55;100.00;97967.19;4155923;28;20229;-83
2023/11/17 02:38:56;;;;;;;3.38;1.40;;;;;;;8.56;100.00;97968.88;4156766;28;20755;-83
2023/11/17 02:41:03;;;;;;;2.15;1.30;;;;;;;8.55;100.00;97980.19;4171787;28;20207;-83
2023/11/17 02:43:07;;;;;;;2.22;1.40;;;;;;;8.57;100.00;97981.78;4157700;28;20340;-82
2023/11/17 02:45:10;;;;;;;2.70;1.40;;;;;;;8.55;100.00;97986.25;4171357;28;20623;-82
2023/11/17 02:47:20;;;;;;;2.45;1.65;;;;;;;8.58;100.00;97995.59;4168056;28;20210;-83
2023/11/17 02:49:34;;;;;;;3.20;1.60;;;;;;;8.59;100.00;97997.28;4172186;28;20208;-82
2023/11/17 02:51:43;;;;;;;3.35;1.83;;;;;;;8.58;100.00;98000.78;4169809;28;20206;-83
2023/11/17 02:53:49;;;;;;;3.40;1.70;;;;;;;8.58;100.00;98006.00;4184944;28;20632;-82
2023/11/17 02:55:51;;;;;;;3.15;1.90;;;;;;;8.60;100.00;98017.13;4157672;28;20224;-83
2023/11/17 02:57:57;;;;;;;2.20;1.52;;;;;;;8.61;100.00;98014.44;4166145;28;20287;-83
2023/11/17 03:00:00;;;;;;;2.55;2.03;;;;;;;8.61;100.00;98021.41;4158405;28;20242;-83
2023/11/17 03:02:03;;;;;;;2.92;2.40;;;;;;;8.63;100.00;98027.31;4166572;28;20241;-82
2023/11/17 03:04:13;;;;;;;3.08;2.05;;;;;;;8.64;100.00;98042.00;4152272;28;20227;-83
2023/11/17 03:06:16;;;;;;;3.88;2.28;;;;;;;8.64;100.00;98029.00;4171045;28;20206;-82
2023/11/17 03:08:21;;;;;;;2.75;2.00;;;;;;;8.66;100.00;98038.41;4158500;28;20614;-84
2023/11/17 03:10:24;;;;;;;3.03;2.22;;;;;;;8.64;100.00;98037.63;4156188;28;20838;-83
2023/11/17 03:12:27;;;;;;;3.00;2.17;;;;;;;8.60;100.00;98050.91;4175800;28;20227;-82
2023/11/17 03:14:30;;;;;;;3.10;2.20;;;;;;;8.59;100.00;98046.66;4184465;28;20205;-83
2023/11/17 03:16:32;;;;;;;4.35;2.50;;;;;;;8.58;100.00;98055.38;4169155;28;20255;-83
2023/11/17 03:18:38;;;;;;;2.50;1.90;;;;;;;8.61;100.00;98063.00;4156563;28;20202;-84
2023/11/17 03:20:46;;;;;;;3.58;2.33;;;;;;;8.61;100.00;98055.19;4184508;28;20736;-83
2023/11/17 03:22:51;;;;;;;3.10;2.08;;;;;;;8.61;100.00;98063.81;4182973;28;20774;-82
2023/11/17 03:24:53;;;;;;;6.40;1.95;;;;;;;8.63;100.00;98058.53;4167998;28;20217;-84
2023/11/17 03:26:58;;;;;;;3.97;2.50;;;;;;;8.61;100.00;98065.59;4171658;28;20207;-82
2023/11/17 03:29:04;;;;;;;3.13;2.38;;;;;;;8.62;100.00;98068.09;4178777;28;20247;-82
2023/11/17 03:31:13;;;;;;;3.20;2.60;;;;;;;8.65;100.00;98080.06;4169111;28;20316;-82
2023/11/17 03:33:17;;;;;;;4.03;3.15;;;;;;;8.65;100.00;98077.47;4170787;28;20190;-82
2023/11/17 03:35:21;;;;;;;3.78;3.28;;;;;;;8.68;100.00;98082.50;4173242;28;20202;-83
2023/11/17 03:37:24;;;;;;;5.22;3.60;;;;;;;8.70;100.00;98088.44;4171656;28;20232;-81
2023/11/17 03:39:30;;;;;;;4.47;3.10;;;;;;;8.70;100.00;98081.44;4164684;28;20702;-83
2023/11/17 03:41:33;;;;;;;5.00;3.17;;;;;;;8.71;100.00;98090.94;4184213;28;20198;-84
2023/11/17 03:43:37;;;;;;;6.45;3.10;;;;;;;8.73;100.00;98096.03;4172472;28;21269;-84
2023/11/17 03:45:44;;;;;;;4.38;3.05;;;;;;;8.76;100.00;98103.66;4172711;28;20251;-83
2023/11/17 03:47:48;;;;;;;4.65;2.97;;;;;;;8.73;100.00;98101.25;4157700;28;20213;-82
2023/11/17 03:49:50;;;;;;;5.20;4.15;;;;;;;8.73;100.00;98102.06;4172624;28;20209;-83
2023/11/17 03:51:54;;;;;;;6.97;5.38;;;;;;;8.76;100.00;98109.69;4171457;28;20198;-83
2023/11/17 03:53:58;;;;;;;5.30;4.40;;;;;;;8.74;100.00;98111.53;4165324;28;20202;-82
2023/11/17 03:56:01;;;;;;;5.70;3.97;;;;;;;8.71;100.00;98113.50;4183850;28;20576;-83
2023/11/17 03:58:05;;;;;;;4.55;3.80;;;;;;;8.71;100.00;98127.31;4165967;28;20219;-82
2023/11/17 04:00:10;;;;;;;7.00;4.63;;;;;;;8.73;100.00;98122.03;4163778;28;20210;-84
2023/11/17 04:02:16;;;;;;;6.10;4.28;;;;;;;8.75;100.00;98121.03;4182793;28;20214;-82
2023/11/17 04:04:18;;;;;;;5.75;4.30;;;;;;;8.76;100.00;98122.66;4156229;28;20211;-83
2023/11/17 04:06:22;;;;;;;5.60;4.22;;;;;;;8.76;100.00;98122.66;4182757;28;20217;-83
2023/11/17 04:08:25;;;;;;;6.20;3.70;;;;;;;8.76;100.00;98127.88;4174783;28;20212;-82
2023/11/17 04:10:30;;;;;;;5.47;4.05;;;;;;;8.77;100.00;98128.72;4183801;28;20645;-82
2023/11/17 04:12:35;;;;;;;5.00;3.55;;;;;;;8.75;100.00;98131.44;4154037;28;20243;-82
2023/11/17 04:14:40;;;;;;;5.47;3.53;;;;;;;8.74;100.00;98134.13;4169303;28;20197;-84
2023/11/17 04:16:42;;;;;;;4.93;3.80;;;;;;;8.73;100.00;98130.66;4181857;28;20292;-83
2023/11/17 04:18:46;;;;;;;5.90;3.95;;;;;;;8.75;100.00;98140.97;4154913;28;20272;-82
2023/11/17 04:20:49;;;;;;;5.15;3.80;;;;;;;8.75;100.00;98139.22;4168846;28;20603;-84
2023/11/17 04:22:52;;;;;;;4.55;3.63;;;;;;;8.78;100.00;98138.19;4166571;28;20234;-83
2023/11/17 04:24:55;;;;;;;6.45;4.38;;;;;;;8.79;100.00;98139.88;4182441;28;20256;-84
2023/11/17 04:27:00;;;;;;;7.90;5.70;;;;;;;8.83;100.00;98141.38;4168957;28;20749;-82
2023/11/17 04:29:03;;;;;;;5.97;4.32;;;;;;;8.86;100.00;98147.19;4186862;28;24380;-82
2023/11/17 04:31:08;;;;;;;7.07;4.90;;;;;;;8.88;100.00;98140.13;4174630;28;20222;-82
2023/11/17 04:33:10;;;;;;;6.05;4.40;;;;;;;8.90;100.00;98137.44;4175214;28;20221;-82
2023/11/17 04:35:14;;;;;;;7.72;4.95;;;;;;;8.91;100.00;98147.75;4173385;28;20228;-82
2023/11/17 04:37:19;;;;;;;7.03;5.18;;;;;;;8.92;100.00;98152.03;4172891;28;20688;-82
2023/11/17 04:39:24;;;;;;;5.60;4.50;;;;;;;8.92;100.00;98147.66;4172995;28;20225;-83
2023/11/17 04:41:31;;;;;;;6.25;4.72;;;;;;;8.94;100.00;98150.16;4188395;28;20194;-84
2023/11/17 04:43:36;;;;;;;10.85;5.43;;;;;;;8.93;100.00;98157.16;4176224;28;20252;-83
2023/11/17 04:45:42;;;;;;;8.10;5.78;;;;;;;8.94;100.00;98152.75;4169172;28;20236;-82
2023/11/17 04:47:46;;;;;;;7.15;5.47;;;;;;;8.95;100.00;98160.47;4167575;28;20203;-83
2023/11/17 04:49:49;;;;;;;8.82;6.38;;;;;;;8.93;100.00;98154.53;4160278;28;20203;-82
2023/11/17 04:51:51;;;;;;;9.90;6.75;;;;;;;8.93;100.00;98167.53;4158974;28;20668;-83
2023/11/17 04:53:55;;;;;;;8.75;6.10;;;;;;;8.94;100.00;98169.22;4182507;28;20227;-83
2023/11/17 04:56:03;;;;;;;9.30;6.50;;;;;;;8.93;100.00;98167.53;4185610;28;20238;-82
2023/11/17 04:58:07;;;;;;;9.07;6.20;;;;;;;8.92;100.00;98170.25;4166985;28;20210;-83
2023/11/17 05:00:13;;;;;;;7.80;5.60;;;;;;;8.89;100.00;98164.41;4170229;28;20223;-83
2023/11/17 05:02:17;;;;;;;8.85;6.00;;;;;;;8.88;100.00;98181.75;4166690;28;20699;-84
2023/11/17 05:04:20;;;;;;;9.38;4.95;;;;;;;8.89;100.00;98180.81;4183281;28;20225;-83
2023/11/17 05:06:24;;;;;;;7.18;4.85;;;;;;;8.89;100.00;98180.81;4172951;28;20206;-82
2023/11/17 05:08:28;;;;;;;6.75;5.18;;;;;;;8.87;100.00;98176.63;4170196;28;20206;-83
2023/11/17 05:10:31;;;;;;;8.02;4.40;;;;;;;8.87;100.00;98189.63;4159174;28;20284;-83
2023/11/17 05:12:34;;;;;;;6.28;4.00;;;;;;;8.88;100.00;98188.72;4177511;28;20210;-84
2023/11/17 05:14:37;;;;;;;8.60;4.18;;;;;;;8.88;100.00;98189.53;4156768;28;20221;-82
2023/11/17 05:16:43;;;;;;;6.43;4.15;;;;;;;8.89;100.00;98187.81;4166474;28;20202;-83
2023/11/17 05:18:47;;;;;;;5.57;4.20;;;;;;;8.87;100.00;98193.09;4157172;28;20202;-82
2023/11/17 05:20:51;;;;;;;5.13;3.78;;;;;;;8.90;100.00;98197.25;4174126;28;20648;-83
2023/11/17 05:22:54;;;;;;;4.78;3.92;;;;;;;8.87;100.00;98187.03;4157463;28;20301;-83
2023/11/17 05:24:58;;;;;;;5.65;3.95;;;;;;;8.88;100.00;98194.75;4173533;28;20937;-82
2023/11/17 05:27:02;;;;;;;4.40;3.65;;;;;;;8.89;100.00;98195.59;4159137;28;20212;-82
2023/11/17 05:29:06;;;;;;;5.00;3.92;;;;;;;8.87;100.00;98194.84;4188487;28;20217;-85
2023/11/17 05:31:09;;;;;;;4.50;3.60;;;;;;;8.86;100.00;98195.78;4157647;28;20226;-83
2023/11/17 05:33:18;;;;;;;5.43;3.90;;;;;;;8.85;100.00;98194.94;4175993;28;20202;-83
2023/11/17 05:35:22;;;;;;;8.18;4.28;;;;;;;8.88;100.00;98193.91;4153672;28;20274;-82
2023/11/17 05:37:24;;;;;;;5.77;3.90;;;;;;;8.86;100.00;98191.41;4180143;28;20723;-82
2023/11/17 05:39:27;;;;;;;5.40;4.25;;;;;;;8.88;100.00;98201.72;4176207;28;21303;-82
2023/11/17 05:41:31;;;;;;;5.30;4.07;;;;;;;8.88;100.00;98196.53;4161497;28;20195;-82
2023/11/17 05:43:36;;;;;;;6.30;4.35;;;;;;;8.87;100.00;98200.91;4159694;28;20294;-82
2023/11/17 05:45:39;;;;;;;5.60;4.13;;;;;;;8.87;100.00;98202.63;4157017;28;20224;-84
2023/11/17 05:47:43;;;;;;;7.45;4.70;;;;;;;8.81;100.00;98192.59;4174056;28;20728;-83
2023/11/17 05:49:47;;;;;;;6.80;4.88;;;;;;;8.79;100.00;98195.28;4156270;28;20199;-82
2023/11/17 05:51:50;;;;;;;5.78;4.72;;;;;;;8.79;100.00;98202.25;4158857;28;20225;-82
2023/11/17 05:53:54;;;;;;;5.70;4.35;;;;;;;8.80;100.00;98203.94;4157036;28;20690;-83
2023/11/17 05:55:57;;;;;;;7.30;4.97;;;;;;;8.81;100.00;98203.84;4171728;28;20241;-82
2023/11/17 05:58:02;;;;;;;6.93;4.60;;;;;;;8.81;100.00;98209.06;4187860;28;20196;-82
2023/11/17 06:00:09;;;;;;;8.68;5.60;;;;;;;8.81;100.00;98203.00;4172312;28;20628;-83
2023/11/17 06:02:15;;;;;;;6.90;5.50;;;;;;;8.83;100.00;98207.19;4164652;28;20220;-83
2023/11/17 06:04:18;;;;;;;8.23;5.20;;;;;;;8.83;100.00;98216.78;4174197;28;20636;-83
2023/11/17 06:06:23;;;;;;;8.02;6.15;;;;;;;8.83;100.00;98217.59;4177201;28;20202;-83
2023/11/17 06:08:31;;;;;;;6.47;5.00;;;;;;;8.86;100.00;98221.78;4156389;28;20298;-82
2023/11/17 06:10:34;;;;;;;7.60;5.07;;;;;;;8.88;100.00;98222.53;4174949;28;20619;-83
2023/11/17 06:12:37;;;;;;;9.15;6.45;;;;;;;8.88;100.00;98223.34;4172937;28;20212;-83
2023/11/17 06:14:41;;;;;;;8.55;5.60;;;;;;;8.89;100.00;98226.81;4170485;28;20221;-82
2023/11/17 06:16:44;;;;;;;7.32;5.68;;;;;;;8.90;100.00;98225.84;4169656;28;20202;-82
2023/11/17 06:18:47;;;;;;;6.55;5.10;;;;;;;8.87;100.00;98223.44;4181530;28;20252;-84
2023/11/17 06:20:50;;;;;;;7.10;5.40;;;;;;;8.87;100.00;98228.63;4159089;28;20231;-82
2023/11/17 06:22:54;;;;;;;7.07;5.43;;;;;;;8.87;100.00;98236.44;4173815;28;20217;-82
2023/11/17 06:24:57;;;;;;;8.05;5.22;;;;;;;8.85;100.00;98230.50;4166810;28;20308;-84
2023/11/17 06:27:01;;;;;;;7.57;5.18;;;;;;;8.86;100.00;98229.59;4170333;28;20203;-82
2023/11/17 06:29:05;;;;;;;7.30;6.00;;;;;;;8.87;100.00;98229.50;4173474;28;20231;-82
2023/11/17 06:31:08;;;;;;;6.75;5.25;;;;;;;8.87;100.00;98237.31;4183637;28;20591;-83
2023/11/17 06:33:12;;;;;;;7.10;5.18;;;;;;;8.87;100.00;98245.09;4155796;28;20719;-82
2023/11/17 06:35:16;;;;;;;7.35;5.07;;;;;;;8.86;100.00;98240.81;4176838;28;20821;-82
2023/11/17 06:37:19;;;;;;;8.68;5.57;;;;;;;8.89;100.00;98250.22;4181512;28;20256;-83
2023/11/17 06:39:25;;;;;;;9.30;5.97;;;;;;;8.89;100.00;98250.22;4164825;28;20294;-83
2023/11/17 06:41:30;;;;;;;9.13;5.63;;;;;;;8.91;100.00;98248.34;4152472;28;20322;-83
2023/11/17 06:43:33;;;;;;;8.43;4.93;;;;;;;8.88;100.00;98258.94;4163432;28;20216;-82
2023/11/17 06:45:37;;;;;;;9.35;6.18;;;;;;;8.89;100.00;98261.44;4170029;28;20320;-83
2023/11/17 06:47:42;;;;;;;8.63;5.90;;;;;;;8.90;100.00;98255.31;4173121;28;20229;-82
2023/11/17 06:49:45;;;;;;;7.67;5.20;;;;;;;8.90;100.00;98257.06;4165205;28;20209;-83
2023/11/17 06:51:50;;;;;;;8.50;5.85;;;;;;;8.91;100.00;98266.56;4154978;28;21253;-83
2023/11/17 06:53:53;;;;;;;9.00;6.20;;;;;;;8.92;100.00;98265.63;4175762;28;20653;-83
2023/11/17 06:55:58;;;;;;;8.35;6.00;;;;;;;8.91;100.00;98262.19;4172451;28;20202;-83
2023/11/17 06:58:03;;;;;;;8.80;6.18;;;;;;;8.92;100.00;98269.88;4168818;28;23763;-83
2023/11/17 07:00:10;;;;;;;6.95;5.90;;;;;;;8.94;100.00;98267.19;4166654;28;20210;-82
2023/11/17 07:02:14;;;;;;;8.20;5.85;;;;;;;8.96;100.00;98271.41;4167726;28;20268;-82
2023/11/17 07:04:17;;;;;;;9.30;7.10;;;;;;;8.98;100.00;98277.31;4183267;28;20204;-83
2023/11/17 07:06:25;;;;;;;8.32;5.82;;;;;;;8.99;100.00;98270.34;4159379;28;20209;-83
2023/11/17 07:08:28;;;;;;;6.75;5.45;;;;;;;8.99;100.00;98271.22;4155271;28;20586;-83
2023/11/17 07:10:33;;;;;;;8.50;6.35;;;;;;;9.01;100.00;98273.72;4155657;28;20218;-83
2023/11/17 07:12:38;;;;;;;8.85;6.05;;;;;;;9.02;100.00;98273.63;4171603;28;20211;-84
2023/11/17 07:14:41;;;;;;;8.13;5.88;;;;;;;9.02;100.00;98275.38;4157435;28;20199;-85
2023/11/17 07:16:44;;;;;;;7.57;6.35;;;;;;;9.03;100.00;98277.88;4183243;28;20206;-86
2023/11/17 07:18:49;;;;;;;10.18;7.20;;;;;;;9.05;100.00;98278.66;4153737;28;20244;-84
2023/11/17 07:20:54;;;;;;;8.65;6.28;;;;;;;9.04;100.00;98279.56;4172911;28;20199;-85
2023/11/17 07:22:59;;;;;;;8.17;6.50;;;;;;;9.08;100.00;98283.69;4171500;28;20206;-85
2023/11/17 07:25:02;;;;;;;8.95;5.95;;;;;;;9.11;100.00;98293.03;4190016;28;20676;-87
2023/11/17 07:27:07;;;;;;;7.65;6.40;;;;;;;9.12;100.00;98298.16;4154524;28;20215;-85
2023/11/17 07:29:13;;;;;;;8.93;6.50;;;;;;;9.14;100.00;98298.91;4184055;28;20296;-85
2023/11/17 07:31:18;;;;;;;9.63;6.88;;;;;;;9.14;100.00;98293.72;4173638;28;20226;-84
2023/11/17 07:33:21;;;;;;;9.73;6.82;;;;;;;9.16;100.00;98302.25;4180816;28;20214;-85
2023/11/17 07:35:26;;;;;;;6.77;5.60;;;;;;;9.18;100.00;98304.78;4159057;28;20239;-82
2023/11/17 07:37:29;;;;;;;7.83;6.00;;;;;;;9.18;100.00;98307.38;4170948;28;20632;-85
2023/11/17 07:39:32;;;;;;;7.47;6.40;;;;;;;9.16;100.00;98301.44;4165238;28;20632;-84
2023/11/17 07:41:36;;;;;;;6.47;5.15;;;;;;;9.14;100.00;98306.72;4184541;28;20982;-83
2023/11/17 07:43:39;;;;;;;7.20;5.50;;;;;;;9.13;100.00;98309.41;4154790;28;20203;-84
2023/11/17 07:45:44;;;;;;;7.55;5.00;;;;;;;9.10;100.00;98309.59;4164674;28;20656;-84
2023/11/17 07:47:48;;;;;;;5.80;4.83;;;;;;;9.13;100.00;98318.06;4167090;28;20736;-83
2023/11/17 07:49:54;;;;;;;7.25;5.40;;;;;;;9.15;100.00;98320.56;4187799;28;20638;-85
2023/11/17 07:51:57;;;;;;;7.10;5.30;;;;;;;9.14;100.00;98316.28;4173268;28;20210;-84
2023/11/17 07:53:59;;;;;;;8.50;4.90;;;;;;;9.13;100.00;98315.44;4173689;28;20197;-85
2023/11/17 07:56:05;;;;;;;6.20;4.35;;;;;;;9.11;100.00;98319.06;4158911;28;20675;-84
2023/11/17 07:58:07;;;;;;;5.28;4.25;;;;;;;9.12;100.00;98326.78;4158877;28;20579;-83
2023/11/17 08:00:18;;;;;;;7.60;4.90;;;;;;;9.13;100.00;98330.22;4171442;28;20260;-84
2023/11/17 08:02:23;;;;;;;8.13;4.07;;;;;;;9.14;100.00;98332.75;4190206;28;20223;-83
2023/11/17 08:04:29;;;;;;;7.75;5.15;;;;;;;9.13;100.00;98338.03;4156559;28;20213;-83
2023/11/17 08:06:33;;;;;;;8.10;5.50;;;;;;;9.13;100.00;98344.06;4171297;28;20229;-84
2023/11/17 08:08:40;;;;;;;7.28;4.57;;;;;;;9.10;100.00;98339.03;4158839;28;20199;-84
2023/11/17 08:10:43;;;;;;;5.65;4.93;;;;;;;9.10;100.00;98351.22;4175997;28;20209;-84
2023/11/17 08:12:47;;;;;;;6.10;4.55;;;;;;;9.09;100.00;98345.16;4178197;28;20278;-83
2023/11/17 08:14:53;;;;;;;7.07;5.60;;;;;;;9.12;100.00;98352.78;4189907;28;20296;-83
2023/11/17 08:16:56;;;;;;;6.50;4.43;;;;;;;9.13;100.00;98349.28;4173017;28;21265;-83
2023/11/17 08:19:03;;;;;;;7.00;4.60;;;;;;;9.15;100.00;98356.97;4157585;28;21244;-84
2023/11/17 08:21:25;;;;;;;8.50;5.68;;;;;;;9.14;100.00;98356.16;4176360;28;20318;-84
2023/11/17 08:23:28;;;;;;;7.78;5.50;;;;;;;9.14;100.00;98360.50;4192631;28;20244;-84
2023/11/17 08:25:32;;;;;;;8.05;5.80;;;;;;;9.14;100.00;98356.16;4191161;28;20221;-84
2023/11/17 08:27:36;;;;;;;5.88;4.38;;;;;;;9.16;100.00;98362.09;4189677;28;20213;-84
2023/11/17 08:29:39;;;;;;;7.00;5.18;;;;;;;9.15;100.00;98355.22;4181162;28;20248;-84
2023/11/17 08:31:42;;;;;;;7.43;4.90;;;;;;;9.18;100.00;98368.03;4189188;28;20222;-84
2023/11/17 08:33:45;;;;;;;7.60;5.63;;;;;;;9.19;100.00;98366.31;4168246;28;20218;-84
2023/11/17 08:35:50;;;;;;;7.93;4.78;;;;;;;9.22;100.00;98371.31;4174645;28;20218;-83
2023/11/17 08:37:55;;;;;;;7.28;5.20;;;;;;;9.24;100.00;98372.06;4189214;28;20210;-84
2023/11/17 08:39:59;;;;;;;6.77;5.07;;;;;;;9.24;100.00;98370.28;4170903;28;20230;-84
2023/11/17 08:42:02;;;;;;;7.78;5.95;;;;;;;9.27;100.00;98369.28;4156253;28;20695;-84
2023/11/17 08:44:06;;;;;;;6.85;5.13;;;;;;;9.29;100.00;98378.69;4173981;28;20293;-82
2023/11/17 08:46:12;;;;;;;7.00;5.80;;;;;;;9.34;100.00;98381.84;4160514;28;20243;-83
2023/11/17 08:48:15;;;;;;;7.70;5.83;;;;;;;9.38;100.00;98385.09;4164040;28;20618;-84
2023/11/17 08:50:18;;;;;;;10.67;7.00;;;;;;;9.37;100.00;98388.63;4172028;28;20656;-84
2023/11/17 08:52:23;;;;;;;8.20;6.30;;;;;;;9.41;100.00;98390.94;4191704;28;20688;-83
2023/11/17 08:54:26;;;;;;;7.70;5.70;;;;;;;9.43;100.00;98391.72;4177170;28;21337;-84
2023/11/17 08:56:29;;;;;;;8.50;5.60;;;;;;;9.38;100.00;98395.50;4189218;28;20617;-83
2023/11/17 08:58:32;;;;;;;6.88;5.43;;;;;;;9.38;100.00;98400.72;4185441;28;20198;-84
2023/11/17 09:00:35;;;;;;;7.13;5.90;;;;;;;9.37;100.00;98396.41;4170666;28;20206;-85
2023/11/17 09:02:38;;;;;;;9.27;5.50;;;;;;;9.38;100.00;98393.72;4172644;28;20277;-84
2023/11/17 09:04:43;;;;;;;8.32;6.15;;;;;;;9.37;100.00;98397.28;4151726;28;21244;-85
2023/11/17 09:06:46;;;;;;;8.23;6.25;;;;;;;9.38;100.00;98402.41;4174239;28;20224;-84
2023/11/17 09:08:51;;;;;;;10.33;6.53;;;;;;;9.40;100.00;98397.09;4170036;28;20558;-83
2023/11/17 09:10:54;;;;;;;10.50;6.87;;;;;;;9.42;100.00;98403.03;4171714;28;20624;-83
2023/11/17 09:12:57;;;;;;;9.47;6.50;;;;;;;9.42;100.00;98401.28;4172425;28;20718;-84
2023/11/17 09:15:00;;;;;;;8.68;6.30;;;;;;;9.44;100.00;98409.00;4174533;28;20645;-83
2023/11/17 09:17:06;;;;;;;8.33;6.87;;;;;;;9.44;100.00;98404.66;4168856;28;20244;-84
2023/11/17 09:19:11;;;;;;;8.68;6.75;;;;;;;9.44;100.00;98403.78;4167235;28;20624;-83
2023/11/17 09:21:14;;;;;;;11.38;6.90;;;;;;;9.42;100.00;98406.47;4158178;28;20689;-83
2023/11/17 09:23:18;;;;;;;9.77;7.20;;;;;;;9.43;100.00;98409.94;4172900;28;20248;-84
2023/11/17 09:25:24;;;;;;;11.32;7.07;;;;;;;9.42;100.00;98406.47;4176306;28;20233;-84
2023/11/17 09:27:27;;;;;;;13.13;7.22;;;;;;;9.44;100.00;98403.78;4184740;28;20240;-83
2023/11/17 09:29:33;;;;;;;10.45;7.85;;;;;;;9.43;100.00;98404.72;4157552;28;20293;-83
2023/11/17 09:31:37;;;;;;;11.23;8.60;;;;;;;9.44;100.00;98406.38;4171050;28;20230;-84
2023/11/17 09:33:41;;;;;;;12.00;8.77;;;;;;;9.49;100.00;98409.56;4167270;28;20668;-83
2023/11/17 09:35:44;;;;;;;15.53;9.17;;;;;;;9.51;100.00;98405.09;4166480;28;20203;-84
2023/11/17 09:37:49;;;;;;;14.30;9.57;;;;;;;9.58;100.00;98409.03;4185088;28;20624;-86
2023/11/17 09:39:53;;;;;;;10.35;7.57;;;;;;;9.62;100.00;98413.13;4175264;28;20233;-85
2023/11/17 09:41:58;;;;;;;10.73;7.50;;;;;;;9.64;100.00;98419.91;4149735;28;20207;-84
2023/11/17 09:44:03;;;;;;;11.27;7.73;;;;;;;9.68;100.00;98423.16;4185967;28;20616;-84
2023/11/17 09:46:08;;;;;;;10.80;8.30;;;;;;;9.70;100.00;98421.34;4167376;28;20672;-83